createdAt,value
2018-02-21T00:01:13.964Z,52.40
2018-02-21T00:03:40.813Z,55.80
2018-02-21T00:06:07.666Z,49.17
2018-02-21T00:08:34.554Z,56.97
2018-02-21T00:11:01.534Z,55.30
2018-02-21T00:13:28.449Z,52.30
2018-02-21T00:15:55.667Z,51.27
2018-02-21T00:18:22.517Z,48.83
2018-02-21T00:20:49.385Z,49.90
2018-02-21T00:23:16.314Z,49.03
2018-02-21T00:25:43.206Z,53.90
2018-02-21T00:28:10.081Z,46.40
2018-02-21T00:30:37.378Z,52.00
2018-02-21T00:33:04.333Z,47.43
2018-02-21T00:35:31.214Z,49.93
2018-02-21T00:37:58.062Z,46.30
2018-02-21T00:40:24.916Z,48.37
2018-02-21T00:42:51.779Z,45.87
2018-02-21T00:45:18.731Z,44.10
2018-02-21T00:47:45.736Z,50.10
2018-02-21T00:50:12.589Z,54.63
2018-02-21T00:52:39.452Z,51.00
2018-02-21T00:55:06.769Z,45.23
2018-02-21T00:57:33.733Z,44.70
2018-02-21T01:00:00.591Z,49.27
2018-02-21T01:02:27.464Z,44.47
2018-02-21T01:04:54.421Z,44.23
2018-02-21T01:07:21.290Z,48.30
2018-02-21T01:09:48.177Z,55.63
2018-02-21T01:12:15.052Z,55.37
2018-02-21T01:14:41.964Z,54.33
2018-02-21T01:17:08.813Z,56.67
2018-02-21T01:19:35.697Z,58.60
2018-02-21T01:22:02.664Z,52.03
2018-02-21T01:24:29.924Z,51.40
2018-02-21T01:26:57.253Z,50.07
2018-02-21T01:29:24.115Z,51.00
2018-02-21T01:31:51.052Z,51.73
2018-02-21T01:34:17.913Z,51.50
2018-02-21T01:36:44.969Z,55.57
2018-02-21T01:39:11.927Z,55.00
2018-02-21T01:41:38.798Z,49.33
2018-02-21T01:44:05.668Z,50.97
2018-02-21T01:46:32.544Z,59.10
2018-02-21T01:48:59.410Z,52.33
2018-02-21T01:51:26.316Z,54.17
2018-02-21T01:53:53.273Z,49.67
2018-02-21T01:56:20.233Z,48.17
2018-02-21T01:58:47.099Z,52.43
2018-02-21T02:01:13.989Z,44.97
2018-02-21T02:03:40.855Z,50.87
2018-02-21T02:06:07.764Z,49.30
2018-02-21T02:08:34.625Z,56.93
2018-02-21T02:11:01.581Z,53.30
2018-02-21T02:13:28.544Z,49.20
2018-02-21T02:15:55.403Z,51.40
2018-02-21T02:18:22.366Z,52.53
2018-02-21T02:20:49.318Z,58.90
2018-02-21T02:23:16.180Z,52.07
2018-02-21T02:25:43.049Z,52.50
2018-02-21T02:28:10.089Z,55.13
2018-02-21T02:30:36.960Z,52.47
2018-02-21T02:33:03.914Z,53.30
2018-02-21T02:35:30.870Z,51.60
2018-02-21T02:37:57.738Z,52.90
2018-02-21T02:40:24.587Z,52.03
2018-02-21T02:42:51.438Z,50.13
2018-02-21T02:45:18.522Z,49.37
2018-02-21T02:47:45.498Z,48.50
2018-02-21T02:50:12.441Z,49.30
2018-02-21T02:52:39.305Z,52.03
2018-02-21T02:55:06.243Z,53.70
2018-02-21T02:57:33.207Z,53.33
2018-02-21T03:00:00.173Z,51.27
2018-02-21T03:02:27.038Z,50.87
2018-02-21T03:04:53.978Z,52.53
2018-02-21T03:07:20.854Z,46.77
2018-02-21T03:09:47.707Z,50.27
2018-02-21T03:12:14.662Z,52.80
2018-02-21T03:14:41.607Z,48.70
2018-02-21T03:17:08.462Z,54.50
2018-02-21T03:19:35.444Z,53.23
2018-02-21T03:22:02.309Z,51.00
2018-02-21T03:24:29.239Z,53.53
2018-02-21T03:26:56.237Z,55.53
2018-02-21T03:29:23.157Z,54.10
2018-02-21T03:31:50.120Z,65.37
2018-02-21T03:34:17.076Z,59.97
2018-02-21T03:36:44.041Z,58.50
2018-02-21T03:39:10.910Z,58.30
2018-02-21T03:41:37.853Z,58.77
2018-02-21T03:44:04.802Z,59.13
2018-02-21T03:46:31.663Z,63.17
2018-02-21T03:48:58.517Z,59.40
2018-02-21T03:51:25.403Z,64.60
2018-02-21T03:53:52.248Z,53.60
2018-02-21T03:56:19.192Z,58.10
2018-02-21T03:58:46.052Z,60.90
2018-02-21T04:01:12.981Z,52.30
2018-02-21T04:03:39.864Z,62.43
2018-02-21T04:06:06.740Z,58.73
2018-02-21T04:08:33.613Z,56.50
2018-02-21T04:11:00.550Z,60.57
2018-02-21T04:13:27.424Z,58.40
2018-02-21T04:15:54.268Z,59.93
2018-02-21T04:18:21.213Z,55.50
2018-02-21T04:20:48.070Z,57.93
2018-02-21T04:23:14.953Z,58.23
2018-02-21T04:25:45.036Z,65.43
2018-02-21T04:28:11.886Z,59.20
2018-02-21T04:30:38.777Z,57.50
2018-02-21T04:33:05.730Z,57.83
2018-02-21T04:35:32.604Z,65.37
2018-02-21T04:37:59.456Z,58.00
2018-02-21T04:40:26.400Z,60.50
2018-02-21T04:42:53.278Z,55.03
2018-02-21T04:45:20.220Z,61.47
2018-02-21T04:47:47.100Z,57.43
2018-02-21T04:50:13.966Z,62.27
2018-02-21T04:52:40.901Z,60.47
2018-02-21T04:55:07.758Z,56.60
2018-02-21T04:57:34.633Z,55.43
2018-02-21T05:00:01.484Z,56.70
2018-02-21T05:02:28.430Z,58.60
2018-02-21T05:04:55.285Z,54.13
2018-02-21T05:07:22.161Z,63.77
2018-02-21T05:09:49.008Z,55.80
2018-02-21T05:12:15.877Z,60.27
2018-02-21T05:14:42.793Z,55.20
2018-02-21T05:17:10.164Z,54.53
2018-02-21T05:19:37.140Z,53.40
2018-02-21T05:22:04.005Z,62.47
2018-02-21T05:24:30.964Z,54.33
2018-02-21T05:26:57.838Z,54.83
2018-02-21T05:29:24.773Z,59.60
2018-02-21T05:31:51.626Z,56.30
2018-02-21T05:34:18.601Z,55.30
2018-02-21T05:36:45.469Z,54.40
2018-02-21T05:39:12.347Z,53.17
2018-02-21T05:41:39.256Z,53.53
2018-02-21T05:44:06.136Z,55.80
2018-02-21T05:46:32.989Z,57.23
2018-02-21T05:48:59.933Z,49.20
2018-02-21T05:51:26.782Z,57.73
2018-02-21T05:53:53.650Z,59.30
2018-02-21T05:56:20.617Z,54.70
2018-02-21T05:58:47.625Z,52.00
2018-02-21T06:01:14.498Z,54.03
2018-02-21T06:03:41.385Z,55.57
2018-02-21T06:06:08.281Z,53.87
2018-02-21T06:08:35.185Z,55.77
2018-02-21T06:11:02.111Z,54.80
2018-02-21T06:13:28.998Z,57.77
2018-02-21T06:15:55.873Z,51.40
2018-02-21T06:18:22.840Z,53.03
2018-02-21T06:20:49.730Z,60.30
2018-02-21T06:23:16.611Z,54.60
2018-02-21T06:25:43.477Z,56.47
2018-02-21T06:28:10.332Z,52.03
2018-02-21T06:30:37.214Z,56.17
2018-02-21T06:33:04.189Z,60.27
2018-02-21T06:35:31.156Z,59.47
2018-02-21T06:37:58.113Z,54.60
2018-02-21T06:40:25.056Z,52.77
2018-02-21T06:42:51.917Z,54.40
2018-02-21T06:45:18.856Z,55.80
2018-02-21T06:47:46.222Z,54.40
2018-02-21T06:50:13.098Z,56.03
2018-02-21T06:52:39.964Z,49.53
2018-02-21T06:55:06.926Z,51.77
2018-02-21T06:57:33.852Z,53.73
2018-02-21T07:00:00.703Z,53.80
2018-02-21T07:02:34.508Z,50.90
2018-02-21T07:05:01.373Z,50.50
2018-02-21T07:07:28.645Z,49.47
2018-02-21T07:09:55.520Z,49.13
2018-02-21T07:12:22.374Z,47.23
2018-02-21T07:14:49.292Z,43.97
2018-02-21T07:17:16.224Z,45.03
2018-02-21T07:19:43.170Z,42.37
2018-02-21T07:22:10.042Z,44.10
2018-02-21T07:24:36.919Z,49.90
2018-02-21T07:27:03.824Z,49.20
2018-02-21T07:29:30.797Z,47.03
2018-02-21T07:31:57.651Z,42.27
2018-02-21T07:34:24.507Z,46.33
2018-02-21T07:36:51.383Z,46.63
2018-02-21T07:39:18.269Z,49.07
2018-02-21T07:41:45.630Z,44.57
2018-02-21T07:44:13.534Z,42.77
2018-02-21T07:46:40.826Z,44.23
2018-02-21T07:49:07.780Z,49.13
2018-02-21T07:51:34.665Z,44.30
2018-02-21T07:54:01.609Z,45.70
2018-02-21T07:56:28.488Z,51.87
2018-02-21T07:58:55.525Z,46.03
2018-02-21T08:01:22.378Z,52.60
2018-02-21T08:03:49.246Z,46.53
2018-02-21T08:06:16.204Z,47.93
2018-02-21T08:08:43.086Z,47.00
2018-02-21T08:11:09.955Z,44.30
2018-02-21T08:13:36.808Z,45.40
2018-02-21T08:16:03.745Z,42.73
2018-02-21T08:18:30.684Z,43.93
2018-02-21T08:20:57.547Z,43.47
2018-02-21T08:23:24.397Z,43.87
2018-02-21T08:25:51.284Z,42.80
2018-02-21T08:28:18.205Z,44.37
2018-02-21T08:30:45.193Z,45.70
2018-02-21T08:33:12.080Z,44.10
2018-02-21T08:35:39.019Z,45.30
2018-02-21T08:38:05.930Z,40.00
2018-02-21T08:40:33.225Z,47.63
2018-02-21T08:43:00.074Z,43.50
2018-02-21T08:45:27.035Z,40.23
2018-02-21T08:47:53.908Z,48.93
2018-02-21T08:50:20.772Z,41.70
2018-02-21T08:52:47.770Z,39.30
2018-02-21T08:55:15.178Z,43.87
2018-02-21T08:57:42.127Z,45.73
2018-02-21T09:00:09.083Z,41.97
2018-02-21T09:02:35.975Z,39.10
2018-02-21T09:05:02.858Z,39.97
2018-02-21T09:07:29.707Z,43.33
2018-02-21T09:09:56.552Z,41.17
2018-02-21T09:12:23.502Z,38.77
2018-02-21T09:14:50.497Z,41.03
2018-02-21T09:17:17.379Z,36.63
2018-02-21T09:19:44.302Z,40.80
2018-02-21T09:22:11.227Z,36.37
2018-02-21T09:24:38.198Z,37.80
2018-02-21T09:27:05.077Z,37.60
2018-02-21T09:29:31.939Z,33.97
2018-02-21T09:31:58.809Z,40.23
2018-02-21T09:34:26.121Z,38.17
2018-02-21T09:36:53.005Z,36.43
2018-02-21T09:39:20.004Z,34.03
2018-02-21T09:41:47.294Z,37.50
2018-02-21T09:44:14.249Z,33.33
2018-02-21T09:46:41.098Z,31.40
2018-02-21T09:49:07.982Z,33.13
2018-02-21T09:51:34.849Z,32.40
2018-02-21T09:54:01.793Z,33.27
2018-02-21T09:56:28.664Z,34.90
2018-02-21T09:58:55.521Z,34.07
2018-02-21T10:01:22.390Z,37.40
2018-02-21T10:03:49.282Z,32.97
2018-02-21T10:06:16.587Z,31.57
2018-02-21T10:08:43.451Z,33.70
2018-02-21T10:11:10.912Z,32.17
2018-02-21T10:13:37.788Z,31.97
2018-02-21T10:16:04.649Z,31.57
2018-02-21T10:18:31.579Z,32.13
2018-02-21T10:20:58.454Z,31.93
2018-02-21T10:23:25.342Z,29.37
2018-02-21T10:25:52.259Z,33.03
2018-02-21T10:28:19.142Z,33.37
2018-02-21T10:30:46.011Z,33.37
2018-02-21T10:33:12.930Z,37.50
2018-02-21T10:35:39.780Z,34.93
2018-02-21T10:38:06.705Z,35.90
2018-02-21T10:40:34.021Z,33.20
2018-02-21T10:43:00.977Z,29.87
2018-02-21T10:45:27.824Z,31.37
2018-02-21T10:47:54.737Z,32.00
2018-02-21T10:50:21.628Z,33.93
2018-02-21T10:52:48.477Z,34.73
2018-02-21T10:57:49.196Z,35.03
2018-02-21T11:00:16.231Z,34.70
2018-02-21T11:02:43.226Z,31.50
2018-02-21T11:05:10.122Z,31.53
2018-02-21T11:07:37.385Z,30.47
2018-02-21T11:10:04.682Z,35.53
2018-02-21T11:12:31.982Z,30.63
2018-02-21T11:14:58.966Z,30.10
2018-02-21T11:17:25.889Z,33.63
2018-02-21T11:19:52.786Z,30.70
2018-02-21T11:22:19.846Z,29.03
2018-02-21T11:24:46.760Z,37.27
2018-02-21T11:27:13.742Z,32.50
2018-02-21T11:29:40.600Z,30.57
2018-02-21T11:32:07.521Z,26.23
2018-02-21T11:34:34.360Z,28.70
2018-02-21T11:37:01.233Z,29.97
2018-02-21T11:39:28.085Z,28.43
2018-02-21T11:41:54.958Z,27.70
2018-02-21T11:44:21.816Z,28.63
2018-02-21T11:46:48.708Z,24.13
2018-02-21T11:49:15.597Z,23.70
2018-02-21T11:51:42.869Z,25.03
2018-02-21T11:54:10.129Z,28.20
2018-02-21T11:56:37.446Z,23.83
2018-02-21T11:59:04.367Z,28.00
2018-02-21T12:01:31.756Z,27.17
2018-02-21T12:03:58.625Z,25.80
2018-02-21T12:06:25.572Z,23.93
2018-02-21T12:08:52.438Z,27.23
2018-02-21T12:11:19.372Z,26.53
2018-02-21T12:13:46.285Z,22.23
2018-02-21T12:16:13.165Z,24.70
2018-02-21T12:18:40.422Z,27.53
2018-02-21T12:21:07.307Z,22.30
2018-02-21T12:23:34.566Z,24.77
2018-02-21T12:26:01.833Z,22.90
2018-02-21T12:28:29.078Z,26.40
2018-02-21T12:30:55.993Z,28.07
2018-02-21T12:33:22.856Z,24.50
2018-02-21T12:35:49.803Z,25.53
2018-02-21T12:38:16.750Z,25.00
2018-02-21T12:40:43.648Z,27.97
2018-02-21T12:43:10.598Z,25.53
2018-02-21T12:45:37.468Z,22.30
2018-02-21T12:48:04.330Z,25.30
2018-02-21T12:50:31.196Z,25.20
2018-02-21T12:52:58.067Z,24.63
2018-02-21T12:55:24.938Z,23.30
2018-02-21T12:57:52.233Z,22.00
2018-02-21T13:00:19.214Z,20.67
2018-02-21T13:02:46.071Z,21.70
2018-02-21T13:05:12.947Z,22.97
2018-02-21T13:07:39.801Z,23.33
2018-02-21T13:10:06.644Z,26.30
2018-02-21T13:12:33.580Z,21.70
2018-02-21T13:15:00.487Z,23.23
2018-02-21T13:17:27.350Z,22.53
2018-02-21T13:19:54.225Z,20.03
2018-02-21T13:22:21.599Z,22.50
2018-02-21T13:24:48.882Z,18.73
2018-02-21T13:27:15.829Z,25.73
2018-02-21T13:29:42.722Z,21.10
2018-02-21T13:32:09.611Z,22.53
2018-02-21T13:34:36.506Z,23.00
2018-02-21T13:37:03.807Z,22.30
2018-02-21T13:39:30.645Z,24.53
2018-02-21T13:41:57.517Z,22.10
2018-02-21T13:44:24.381Z,24.80
2018-02-21T13:46:51.237Z,23.73
2018-02-21T13:49:18.119Z,27.60
2018-02-21T13:51:45.211Z,28.77
2018-02-21T13:54:12.106Z,26.70
2018-02-21T13:56:38.961Z,26.10
2018-02-21T13:59:05.826Z,23.33
2018-02-21T14:01:32.701Z,28.47
2018-02-21T14:03:59.635Z,24.93
2018-02-21T14:06:26.509Z,28.50
2018-02-21T14:08:53.408Z,23.50
2018-02-21T14:11:20.709Z,22.03
2018-02-21T14:13:47.583Z,26.10
2018-02-21T14:16:14.546Z,25.73
2018-02-21T14:18:41.385Z,24.40
2018-02-21T14:21:08.259Z,24.70
2018-02-21T14:23:35.134Z,24.53
2018-02-21T14:26:02.012Z,21.77
2018-02-21T14:28:28.852Z,29.53
2018-02-21T14:30:55.763Z,22.57
2018-02-21T14:33:22.649Z,24.03
2018-02-21T14:35:49.540Z,24.20
2018-02-21T14:38:16.797Z,27.10
2018-02-21T14:40:43.692Z,21.73
2018-02-21T14:43:10.592Z,25.00
2018-02-21T14:45:37.504Z,26.40
2018-02-21T14:48:04.387Z,25.23
2018-02-21T14:50:31.248Z,25.23
2018-02-21T14:52:58.119Z,27.57
2018-02-21T14:55:24.960Z,24.97
2018-02-21T14:57:51.828Z,28.67
2018-02-21T15:00:18.716Z,27.40
2018-02-21T15:02:45.924Z,24.37
2018-02-21T15:05:12.825Z,26.40
2018-02-21T15:07:39.718Z,24.60
2018-02-21T15:10:06.997Z,25.97
2018-02-21T15:12:33.848Z,29.67
2018-02-21T15:15:00.822Z,28.03
2018-02-21T15:17:28.079Z,29.90
2018-02-21T15:19:54.940Z,27.70
2018-02-21T15:22:21.916Z,28.23
2018-02-21T15:24:48.944Z,30.90
2018-02-21T15:27:15.953Z,32.77
2018-02-21T15:29:42.923Z,30.03
2018-02-21T15:32:09.901Z,30.33
2018-02-21T15:34:37.224Z,32.43
2018-02-21T15:37:04.089Z,27.83
2018-02-21T15:39:30.979Z,34.77
2018-02-21T15:41:57.877Z,29.73
2018-02-21T15:44:24.726Z,33.07
2018-02-21T15:46:51.637Z,29.13
2018-02-21T15:49:18.579Z,31.00
2018-02-21T15:51:45.547Z,25.80
2018-02-21T15:54:12.443Z,25.57
2018-02-21T15:56:39.758Z,27.73
2018-02-21T15:59:06.713Z,30.40
2018-02-21T16:01:33.588Z,29.53
2018-02-21T16:04:00.483Z,29.53
2018-02-21T16:06:27.798Z,28.83
2018-02-21T16:08:54.660Z,26.20
2018-02-21T16:11:21.630Z,28.20
2018-02-21T16:13:48.496Z,27.37
2018-02-21T16:16:15.366Z,32.00
2018-02-21T16:18:42.235Z,28.80
2018-02-21T16:21:09.514Z,26.30
2018-02-21T16:23:36.824Z,29.10
2018-02-21T16:26:03.694Z,27.77
2018-02-21T16:28:30.549Z,30.60
2018-02-21T16:30:57.420Z,27.33
2018-02-21T16:33:24.288Z,25.77
2018-02-21T16:35:51.172Z,31.07
2018-02-21T16:38:18.148Z,30.40
2018-02-21T16:40:45.019Z,31.40
2018-02-21T16:43:11.864Z,28.43
2018-02-21T16:45:38.782Z,27.97
2018-02-21T16:48:06.029Z,27.87
2018-02-21T16:50:32.967Z,28.20
2018-02-21T16:52:59.934Z,27.63
2018-02-21T16:55:26.881Z,29.37
2018-02-21T16:57:53.737Z,27.37
2018-02-21T17:00:20.594Z,24.13
2018-02-21T17:02:53.029Z,28.37
2018-02-21T17:05:19.911Z,29.40
2018-02-21T17:07:47.286Z,25.80
2018-02-21T17:10:14.211Z,24.73
2018-02-21T17:12:41.554Z,24.20
2018-02-21T17:15:08.490Z,25.23
2018-02-21T17:17:35.449Z,25.20
2018-02-21T17:20:02.323Z,23.10
2018-02-21T17:22:29.277Z,23.60
2018-02-21T17:24:56.176Z,25.40
2018-02-21T17:27:22.992Z,25.20
2018-02-21T17:29:49.945Z,26.20
2018-02-21T17:32:16.814Z,24.00
2018-02-21T17:34:43.745Z,24.47
2018-02-21T17:37:10.617Z,25.27
2018-02-21T17:39:37.573Z,27.07
2018-02-21T17:42:04.450Z,21.27
2018-02-21T17:44:31.436Z,23.53
2018-02-21T17:46:58.289Z,22.67
2018-02-21T17:49:25.269Z,22.57
2018-02-21T17:51:52.536Z,21.60
2018-02-21T17:54:19.813Z,24.97
2018-02-21T17:56:46.882Z,23.30
2018-02-21T17:59:14.097Z,22.67
2018-02-21T18:01:40.960Z,23.33
2018-02-21T18:04:07.845Z,22.67
2018-02-21T18:06:35.084Z,22.87
2018-02-21T18:09:01.997Z,23.00
2018-02-21T18:11:28.966Z,23.00
2018-02-21T18:13:55.841Z,26.20
2018-02-21T18:16:22.773Z,23.80
2018-02-21T18:18:49.728Z,23.97
2018-02-21T18:21:16.693Z,19.63
2018-02-21T18:23:43.632Z,20.00
2018-02-21T18:26:10.503Z,20.27
2018-02-21T18:28:37.373Z,21.40
2018-02-21T18:31:04.232Z,21.60
2018-02-21T18:33:31.094Z,20.73
2018-02-21T18:35:58.074Z,18.40
2018-02-21T18:38:24.934Z,21.03
2018-02-21T18:40:51.779Z,19.17
2018-02-21T18:43:18.748Z,17.83
2018-02-21T18:45:45.644Z,17.73
2018-02-21T18:48:12.559Z,16.83
2018-02-21T18:50:39.492Z,19.00
2018-02-21T18:53:06.447Z,20.20
2018-02-21T18:55:33.402Z,18.80
2018-02-21T18:58:00.408Z,18.60
2018-02-21T19:00:27.228Z,20.30
2018-02-21T19:02:54.092Z,17.20
2018-02-21T19:05:20.964Z,18.53
2018-02-21T19:07:47.908Z,19.63
2018-02-21T19:10:14.888Z,20.93
2018-02-21T19:12:41.713Z,18.00
2018-02-21T19:15:08.589Z,17.43
2018-02-21T19:17:35.531Z,16.40
2018-02-21T19:20:02.381Z,17.53
2018-02-21T19:22:29.272Z,17.10
2018-02-21T19:24:56.216Z,16.30
2018-02-21T19:27:23.160Z,17.13
2018-02-21T19:29:50.073Z,20.43
2018-02-21T19:32:16.996Z,21.70
2018-02-21T19:34:44.236Z,20.33
2018-02-21T19:37:11.151Z,17.43
2018-02-21T19:39:38.068Z,19.87
2018-02-21T19:42:05.028Z,19.80
2018-02-21T19:44:31.983Z,18.40
2018-02-21T19:46:58.951Z,20.40
2018-02-21T19:49:25.901Z,20.30
2018-02-21T19:51:52.781Z,21.80
2018-02-21T19:54:19.728Z,20.57
2018-02-21T19:56:46.658Z,20.87
2018-02-21T19:59:13.689Z,19.53
2018-02-21T20:01:40.962Z,20.20
2018-02-21T20:04:07.852Z,20.67
2018-02-21T20:06:34.724Z,24.60
2018-02-21T20:09:01.586Z,25.23
2018-02-21T20:11:28.636Z,25.37
2018-02-21T20:13:55.520Z,28.87
2018-02-21T20:16:22.384Z,22.73
2018-02-21T20:18:49.243Z,24.33
2018-02-21T20:21:16.113Z,27.77
2018-02-21T20:23:43.123Z,25.40
2018-02-21T20:26:09.989Z,25.60
2018-02-21T20:28:37.769Z,27.60
2018-02-21T20:31:04.615Z,25.63
2018-02-21T20:33:31.473Z,27.87
2018-02-21T20:35:58.368Z,27.73
2018-02-21T20:38:25.351Z,28.03
2018-02-21T20:40:52.188Z,31.73
2018-02-21T20:43:19.136Z,28.03
2018-02-21T20:45:46.020Z,28.90
2018-02-21T20:48:12.950Z,29.67
2018-02-21T20:50:39.787Z,28.33
2018-02-21T20:53:06.648Z,29.93
2018-02-21T20:55:33.505Z,29.53
2018-02-21T20:58:00.380Z,30.07
2018-02-21T21:00:27.232Z,30.20
2018-02-21T21:02:54.149Z,30.53
2018-02-21T21:05:21.469Z,34.17
2018-02-21T21:07:48.406Z,30.63
2018-02-21T21:10:15.284Z,33.83
2018-02-21T21:12:42.216Z,32.73
2018-02-21T21:15:09.101Z,32.50
2018-02-21T21:17:35.977Z,32.57
2018-02-21T21:20:03.236Z,33.07
2018-02-21T21:22:30.154Z,31.90
2018-02-21T21:24:57.024Z,40.70
2018-02-21T21:27:23.959Z,36.50
2018-02-21T21:29:50.928Z,33.70
2018-02-21T21:32:17.813Z,33.97
2018-02-21T21:34:44.733Z,36.20
2018-02-21T21:37:11.691Z,32.90
2018-02-21T21:39:38.529Z,31.00
2018-02-21T21:42:05.517Z,33.00
2018-02-21T21:44:32.474Z,32.43
2018-02-21T21:46:59.333Z,30.47
2018-02-21T21:49:26.211Z,32.50
2018-02-21T21:51:53.065Z,32.20
2018-02-21T21:54:20.039Z,32.07
2018-02-21T21:56:46.989Z,29.00
2018-02-21T21:59:13.937Z,36.80
2018-02-21T22:01:40.803Z,29.60
2018-02-21T22:04:07.736Z,31.43
2018-02-21T22:06:34.581Z,33.30
2018-02-21T22:09:01.556Z,30.83
2018-02-21T22:11:28.437Z,35.07
2018-02-21T22:13:55.285Z,31.50
2018-02-21T22:16:22.161Z,31.70
2018-02-21T22:18:49.193Z,32.43
2018-02-21T22:21:16.153Z,30.87
2018-02-21T22:23:43.149Z,37.17
2018-02-21T22:26:10.014Z,31.80
2018-02-21T22:28:36.884Z,30.87
2018-02-21T22:31:04.285Z,30.57
2018-02-21T22:33:31.253Z,32.57
2018-02-21T22:35:58.209Z,32.63
2018-02-21T22:38:25.087Z,30.13
2018-02-21T22:40:51.947Z,30.27
2018-02-21T22:43:18.879Z,32.17
2018-02-21T22:45:45.750Z,32.37
2018-02-21T22:48:12.616Z,34.80
2018-02-21T22:50:39.552Z,33.47
2018-02-21T22:53:06.512Z,28.10
2018-02-21T22:55:33.410Z,31.50
2018-02-21T22:58:00.340Z,29.77
2018-02-21T23:00:27.300Z,28.83
2018-02-21T23:02:54.258Z,30.17
2018-02-21T23:05:21.100Z,29.43
2018-02-21T23:07:47.993Z,32.20
2018-02-21T23:10:15.066Z,32.00
2018-02-21T23:12:41.984Z,29.00
2018-02-21T23:15:08.865Z,29.37
2018-02-21T23:17:35.736Z,27.70
2018-02-21T23:20:03.049Z,26.73
2018-02-21T23:22:29.928Z,25.50
2018-02-21T23:24:56.882Z,31.83
2018-02-21T23:27:23.792Z,27.20
2018-02-21T23:29:50.655Z,29.67
2018-02-21T23:32:17.940Z,29.40
2018-02-21T23:34:45.208Z,27.50
2018-02-21T23:37:12.464Z,27.87
2018-02-21T23:39:39.768Z,27.50
2018-02-21T23:42:06.648Z,31.03
2018-02-21T23:44:33.585Z,26.37
2018-02-21T23:47:00.461Z,28.50
2018-02-21T23:49:27.345Z,31.47
2018-02-21T23:51:54.222Z,25.77
2018-02-21T23:54:21.525Z,24.70
2018-02-21T23:56:48.492Z,28.43
2018-02-21T23:59:15.454Z,26.50
